Time;durP1;ratioP1;P1;durP2;ratioP2;P2;SDS_P1;SDS_P2;PMS_P1;PMS_P2;Temp;Humidity;BMP_temperature;BMP_pressure;BME280_temperature;BME280_humidity;BME280_pressure;Samples;Min_cycle;Max_cycle;Signal;HPM_P1;HPM_P2
2022/01/09 00:01:37;;;;;;;15.80;3.63;;;-10.00;99.90;;;;;;4917188;29;20024;-66
2022/01/09 00:04:03;;;;;;;11.02;4.13;;;-10.00;99.90;;;;;;4917426;29;20028;-66
2022/01/09 00:06:28;;;;;;;13.80;4.80;;;-9.90;99.90;;;;;;4916830;29;20034;-66
2022/01/09 00:08:54;;;;;;;6.53;3.25;;;-10.00;99.90;;;;;;4917194;29;20032;-67
2022/01/09 00:11:26;;;;;;;15.18;3.78;;;-10.00;99.90;;;;;;4916408;29;20032;-66
2022/01/09 00:13:56;;;;;;;10.18;3.92;;;-10.00;99.90;;;;;;4917003;29;20092;-67
2022/01/09 00:16:23;;;;;;;9.80;3.92;;;-10.00;99.90;;;;;;4916722;29;20032;-67
2022/01/09 00:18:49;;;;;;;11.23;3.50;;;-10.00;99.90;;;;;;4916852;29;20378;-67
2022/01/09 00:21:16;;;;;;;10.07;4.03;;;-10.00;99.90;;;;;;4916932;29;20427;-67
2022/01/09 00:23:42;;;;;;;11.32;4.53;;;-10.00;99.90;;;;;;4916801;29;20063;-67
2022/01/09 00:26:08;;;;;;;7.72;3.67;;;-10.00;99.90;;;;;;4916529;29;20056;-67
2022/01/09 00:28:35;;;;;;;13.15;3.97;;;-10.00;99.90;;;;;;4916987;29;20043;-67
2022/01/09 00:31:01;;;;;;;9.18;3.45;;;-9.90;99.90;;;;;;4916939;29;20035;-66
2022/01/09 00:33:27;;;;;;;13.18;4.00;;;-9.90;99.90;;;;;;4916718;29;20038;-66
2022/01/09 00:35:53;;;;;;;20.02;4.70;;;-9.90;99.90;;;;;;4916471;29;20111;-66
2022/01/09 00:38:19;;;;;;;10.48;4.30;;;-9.90;99.90;;;;;;4916135;29;20056;-66
2022/01/09 00:40:45;;;;;;;11.88;4.32;;;-9.80;99.90;;;;;;4916508;29;20059;-65
2022/01/09 00:43:11;;;;;;;11.50;4.10;;;-9.80;99.90;;;;;;4916334;29;20083;-66
2022/01/09 00:45:38;;;;;;;15.30;4.78;;;-9.80;99.90;;;;;;4916407;29;20028;-66
2022/01/09 00:48:05;;;;;;;10.07;3.78;;;-9.70;99.90;;;;;;4916346;29;20036;-66
2022/01/09 00:50:30;;;;;;;9.65;3.92;;;-9.80;99.90;;;;;;4916197;29;20075;-66
2022/01/09 00:52:56;;;;;;;11.63;5.10;;;-9.80;99.90;;;;;;4916443;29;20044;-66
2022/01/09 00:55:22;;;;;;;7.88;4.07;;;-9.80;99.90;;;;;;4916465;29;20032;-66
2022/01/09 00:57:47;;;;;;;12.55;4.55;;;-9.80;99.90;;;;;;4916580;29;20393;-66
2022/01/09 01:00:14;;;;;;;10.70;4.22;;;-9.80;99.90;;;;;;4916542;29;20025;-66
2022/01/09 01:02:40;;;;;;;17.95;4.45;;;-9.80;99.90;;;;;;4916485;29;20036;-66
2022/01/09 01:05:08;;;;;;;9.75;4.00;;;-9.70;99.90;;;;;;4916263;29;20031;-66
2022/01/09 01:07:33;;;;;;;12.00;4.00;;;-9.60;99.90;;;;;;4916035;29;20035;-66
2022/01/09 01:09:59;;;;;;;12.15;4.00;;;-9.60;99.90;;;;;;4916452;29;20028;-66
2022/01/09 01:12:26;;;;;;;14.52;3.45;;;-9.60;99.90;;;;;;4914706;29;20480;-66
2022/01/09 01:14:52;;;;;;;8.68;3.88;;;-9.50;99.90;;;;;;4916029;29;20031;-66
2022/01/09 01:17:19;;;;;;;11.73;4.72;;;-9.50;99.90;;;;;;4915903;29;20024;-65
2022/01/09 01:19:45;;;;;;;11.10;3.53;;;-9.60;99.90;;;;;;4915977;29;20481;-66
2022/01/09 01:22:10;;;;;;;10.45;4.05;;;-9.60;99.90;;;;;;4915727;29;20036;-66
2022/01/09 01:24:37;;;;;;;9.90;4.15;;;-9.60;99.90;;;;;;4915920;29;20028;-66
2022/01/09 01:27:03;;;;;;;8.35;3.47;;;-9.50;99.90;;;;;;4915657;29;20043;-66
2022/01/09 01:29:29;;;;;;;14.77;4.82;;;-9.60;99.90;;;;;;4916035;29;20152;-66
2022/01/09 01:31:55;;;;;;;13.45;4.18;;;-9.60;99.90;;;;;;4915823;29;20504;-66
2022/01/09 01:34:20;;;;;;;10.60;3.90;;;-9.60;99.90;;;;;;4915690;29;20032;-66
2022/01/09 01:36:46;;;;;;;7.13;4.28;;;-9.60;99.90;;;;;;4915781;29;20040;-66
2022/01/09 01:39:12;;;;;;;11.93;4.97;;;-9.60;99.90;;;;;;4915678;29;20028;-66
2022/01/09 01:41:38;;;;;;;7.35;3.70;;;-9.60;99.90;;;;;;4915799;29;20064;-66
2022/01/09 01:44:09;;;;;;;14.85;4.78;;;-9.70;99.90;;;;;;4915788;29;20024;-66
2022/01/09 01:46:35;;;;;;;8.10;4.05;;;-9.70;99.90;;;;;;4915724;29;20107;-66
2022/01/09 01:49:01;;;;;;;9.57;4.75;;;-9.80;99.90;;;;;;4915773;29;20037;-66
2022/01/09 01:51:27;;;;;;;15.38;4.43;;;-9.80;99.90;;;;;;4915770;29;20032;-66
2022/01/09 01:53:55;;;;;;;11.57;4.90;;;-9.80;99.90;;;;;;4915832;29;20472;-65
2022/01/09 01:56:22;;;;;;;15.15;4.80;;;-9.70;99.90;;;;;;4915491;29;20024;-67
2022/01/09 01:58:49;;;;;;;17.83;4.90;;;-9.60;99.90;;;;;;4915540;29;20060;-67
2022/01/09 02:01:15;;;;;;;13.48;4.78;;;-9.60;99.90;;;;;;4915506;29;20032;-66
2022/01/09 02:03:41;;;;;;;14.18;4.88;;;-9.60;99.90;;;;;;4915542;29;20083;-66
2022/01/09 02:06:07;;;;;;;13.57;4.65;;;-9.50;99.90;;;;;;4915556;29;20103;-67
2022/01/09 02:08:34;;;;;;;14.70;4.88;;;-9.60;99.90;;;;;;4915471;29;20115;-67
2022/01/09 02:11:00;;;;;;;9.25;3.88;;;-9.60;99.90;;;;;;4915843;29;20028;-66
2022/01/09 02:13:25;;;;;;;12.20;3.97;;;-9.60;99.90;;;;;;4915394;29;20020;-66
2022/01/09 02:15:57;;;;;;;7.68;4.38;;;-9.70;99.90;;;;;;4915552;29;20097;-66
2022/01/09 02:18:23;;;;;;;13.38;5.03;;;-9.80;99.90;;;;;;4915358;29;20029;-66
2022/01/09 02:20:51;;;;;;;14.57;4.93;;;-9.80;99.90;;;;;;4915575;29;20024;-66
2022/01/09 02:23:18;;;;;;;8.55;4.32;;;-9.80;99.90;;;;;;4915344;29;20028;-67
2022/01/09 02:55:11;;;;;;;12.73;4.95;;;-9.10;99.90;;;;;;4917593;29;20084;-65
2022/01/09 02:57:42;;;;;;;10.45;4.65;;;-9.20;99.90;;;;;;4918528;29;20036;-65
2022/01/09 03:00:12;;;;;;;13.13;5.57;;;-9.10;99.90;;;;;;4918601;29;20056;-66
2022/01/09 03:02:38;;;;;;;8.82;4.35;;;-9.10;99.90;;;;;;4918333;29;20114;-66
2022/01/09 03:38:43;;;;;;;10.65;4.30;;;-9.10;99.90;;;;;;5244174;23;20426;-64
2022/01/09 03:41:09;;;;;;;13.45;5.18;;;-9.10;99.90;;;;;;4917850;29;20028;-64
2022/01/09 03:43:35;;;;;;;11.35;5.03;;;-9.10;99.90;;;;;;4917563;29;20039;-65
2022/01/09 03:46:01;;;;;;;8.88;4.28;;;-9.10;99.90;;;;;;4916512;29;20667;-65
2022/01/09 03:48:26;;;;;;;11.70;5.07;;;-9.10;99.90;;;;;;4917300;29;20032;-65
2022/01/09 03:50:52;;;;;;;10.07;5.00;;;-9.00;99.90;;;;;;4917512;29;20103;-65
2022/01/09 03:53:18;;;;;;;13.88;5.10;;;-9.00;99.90;;;;;;4917548;29;20031;-65
2022/01/09 03:55:44;;;;;;;11.48;5.07;;;-8.90;99.90;;;;;;4917486;29;20088;-65
2022/01/09 03:58:09;;;;;;;9.52;4.65;;;-8.90;99.90;;;;;;4917181;29;20491;-65
2022/01/09 04:00:35;;;;;;;14.32;5.85;;;-9.00;99.90;;;;;;4917505;29;20034;-65
2022/01/09 04:03:01;;;;;;;8.68;4.85;;;-9.00;99.90;;;;;;4917069;29;20480;-65
2022/01/09 04:05:27;;;;;;;10.70;4.90;;;-9.00;99.90;;;;;;4917194;29;20032;-65
2022/01/09 04:07:52;;;;;;;10.77;4.40;;;-9.00;99.90;;;;;;4916816;29;20044;-65
2022/01/09 04:10:20;;;;;;;12.07;5.65;;;-8.90;99.90;;;;;;4917136;29;20020;-65
2022/01/09 04:12:51;;;;;;;10.93;4.90;;;-9.00;99.90;;;;;;4917262;29;20028;-65
2022/01/09 04:15:18;;;;;;;8.73;4.63;;;-9.00;99.90;;;;;;4917330;29;20080;-65
2022/01/09 04:20:10;;;;;;;9.70;4.70;;;-9.00;99.90;;;;;;4917214;29;20024;-65
2022/01/09 04:22:36;;;;;;;8.82;4.63;;;-9.00;99.90;;;;;;4916836;29;20369;-66
2022/01/09 04:25:02;;;;;;;9.43;4.55;;;-9.10;99.90;;;;;;4916559;29;20035;-65
2022/01/09 04:27:28;;;;;;;11.15;5.18;;;-9.00;99.90;;;;;;4916926;29;20040;-65
2022/01/09 04:29:53;;;;;;;9.38;4.53;;;-9.00;99.90;;;;;;4916580;29;20047;-65
2022/01/09 04:32:19;;;;;;;11.80;4.85;;;-9.00;99.90;;;;;;4916735;29;20103;-65
2022/01/09 04:34:45;;;;;;;10.65;4.88;;;-8.90;99.90;;;;;;4916545;29;20032;-64
2022/01/09 04:37:13;;;;;;;9.30;5.07;;;-9.00;99.90;;;;;;4916657;29;20496;-64
2022/01/09 04:39:40;;;;;;;8.77;5.13;;;-9.00;99.90;;;;;;4916439;29;20043;-65
2022/01/09 04:42:06;;;;;;;9.52;4.90;;;-9.00;99.90;;;;;;4916495;29;20020;-65
2022/01/09 04:44:32;;;;;;;8.93;4.57;;;-9.00;99.90;;;;;;4916719;29;20447;-65
2022/01/09 04:47:03;;;;;;;10.77;4.95;;;-9.00;99.90;;;;;;4916387;29;20043;-65
2022/01/09 04:49:36;;;;;;;12.40;5.00;;;-9.00;99.90;;;;;;4916438;29;20623;-65
2022/01/09 04:52:04;;;;;;;8.05;4.82;;;-9.00;99.90;;;;;;4916393;29;20488;-64
2022/01/09 04:54:30;;;;;;;15.52;5.45;;;-9.00;99.90;;;;;;4916388;29;20070;-65
2022/01/09 04:56:55;;;;;;;15.02;5.28;;;-8.90;99.90;;;;;;4916336;29;20028;-65
2022/01/09 04:59:21;;;;;;;9.25;5.10;;;-8.90;99.90;;;;;;4916665;29;20055;-65
2022/01/09 05:01:47;;;;;;;15.02;4.78;;;-8.90;99.90;;;;;;4916233;29;20115;-65
2022/01/09 05:04:13;;;;;;;13.02;5.60;;;-8.90;99.90;;;;;;4916464;29;20024;-65
2022/01/09 05:06:38;;;;;;;10.23;5.00;;;-8.90;99.90;;;;;;4916117;29;20420;-65
2022/01/09 05:09:04;;;;;;;13.10;5.28;;;-8.90;99.90;;;;;;4915928;29;20112;-65
2022/01/09 05:11:30;;;;;;;15.60;5.15;;;-8.90;99.90;;;;;;4916097;29;20028;-65
2022/01/09 05:13:55;;;;;;;12.27;5.05;;;-8.90;99.90;;;;;;4915870;29;20032;-65
2022/01/09 05:16:21;;;;;;;14.23;5.25;;;-8.80;99.90;;;;;;4916097;29;20032;-65
2022/01/09 05:18:58;;;;;;;8.85;4.55;;;-8.80;99.90;;;;;;4916055;29;20064;-64
2022/01/09 05:21:24;;;;;;;10.80;4.75;;;-8.80;99.90;;;;;;4916035;29;20028;-65
2022/01/09 05:23:49;;;;;;;10.60;4.82;;;-8.70;99.90;;;;;;4915696;29;20028;-65
2022/01/09 05:26:15;;;;;;;9.40;4.95;;;-8.70;99.90;;;;;;4916113;29;20028;-65
2022/01/09 05:28:41;;;;;;;12.07;5.30;;;-8.80;99.90;;;;;;4916027;29;20050;-65
2022/01/09 05:31:07;;;;;;;11.77;4.70;;;-8.80;99.90;;;;;;4914726;29;20480;-64
2022/01/09 05:33:33;;;;;;;9.90;4.88;;;-8.80;99.90;;;;;;4915873;29;20028;-65
2022/01/09 05:35:58;;;;;;;9.82;5.25;;;-8.70;99.90;;;;;;4915799;29;20072;-65
2022/01/09 05:38:24;;;;;;;8.88;4.95;;;-8.70;99.90;;;;;;4915456;29;20056;-67
2022/01/09 05:40:50;;;;;;;10.45;5.20;;;-8.80;99.90;;;;;;4915748;29;20439;-67
2022/01/09 05:43:17;;;;;;;15.30;3.88;;;-8.70;99.90;;;;;;4915798;29;20020;-67
2022/01/09 05:45:43;;;;;;;8.70;5.00;;;-8.30;99.90;;;;;;4915568;29;20040;-67
2022/01/09 05:48:09;;;;;;;7.93;4.88;;;-7.70;99.90;;;;;;4915581;29;20044;-67
2022/01/09 05:50:35;;;;;;;9.95;4.80;;;-7.80;99.90;;;;;;4915429;29;20096;-68
2022/01/09 05:53:00;;;;;;;10.10;4.63;;;-8.00;99.90;;;;;;4915368;29;20551;-68
2022/01/09 05:55:26;;;;;;;11.55;5.03;;;-8.10;99.90;;;;;;4915802;29;20036;-68
2022/01/09 05:57:52;;;;;;;9.50;4.90;;;-8.20;99.90;;;;;;4915189;29;20041;-73
2022/01/09 06:00:18;;;;;;;7.65;4.85;;;-8.30;99.90;;;;;;4915210;29;20032;-76
2022/01/09 06:02:44;;;;;;;11.30;4.88;;;-8.40;99.90;;;;;;4915128;29;20108;-74
2022/01/09 06:05:09;;;;;;;9.93;5.43;;;-8.50;99.90;;;;;;4915229;29;20107;-73
2022/01/09 06:07:40;;;;;;;9.75;5.30;;;-8.50;99.90;;;;;;4915251;29;20038;-68
2022/01/09 06:10:06;;;;;;;9.98;4.50;;;-8.50;99.90;;;;;;4916998;29;20031;-67
2022/01/09 06:12:32;;;;;;;8.65;4.57;;;-8.50;99.90;;;;;;4918925;29;20527;-68
2022/01/09 06:14:58;;;;;;;9.27;4.65;;;-8.50;99.90;;;;;;4918850;29;20036;-68
2022/01/09 06:17:24;;;;;;;11.93;4.72;;;-8.60;99.90;;;;;;4918805;29;20039;-68
2022/01/09 06:19:50;;;;;;;12.90;5.20;;;-8.60;99.90;;;;;;4918703;29;20024;-68
2022/01/09 06:22:18;;;;;;;9.50;4.72;;;-8.60;99.90;;;;;;4918398;29;20032;-68
2022/01/09 06:24:47;;;;;;;13.15;5.63;;;-8.60;99.90;;;;;;4919290;29;20036;-68
2022/01/09 06:27:17;;;;;;;7.85;4.80;;;-8.60;99.90;;;;;;4918792;29;20040;-67
2022/01/09 06:29:43;;;;;;;9.18;5.07;;;-8.60;99.90;;;;;;4918946;29;20038;-67
2022/01/09 06:32:09;;;;;;;11.93;4.95;;;-8.00;99.90;;;;;;4918704;29;20036;-66
2022/01/09 06:34:35;;;;;;;9.73;4.95;;;-7.80;99.90;;;;;;4918936;29;20039;-66
2022/01/09 06:37:01;;;;;;;10.32;4.90;;;-8.00;99.90;;;;;;4918548;29;20035;-67
2022/01/09 06:39:27;;;;;;;7.40;4.53;;;-8.10;99.90;;;;;;4918547;29;20500;-67
2022/01/09 06:41:52;;;;;;;6.75;4.07;;;-8.20;99.90;;;;;;4918935;29;20130;-66
2022/01/09 06:44:18;;;;;;;10.57;5.38;;;-8.40;99.90;;;;;;4918831;29;20376;-66
2022/01/09 06:46:44;;;;;;;10.55;5.78;;;-8.40;99.90;;;;;;4918571;29;20164;-66
2022/01/09 06:49:10;;;;;;;9.30;5.93;;;-8.40;99.90;;;;;;4918288;29;20500;-66
2022/01/09 06:51:36;;;;;;;9.20;5.38;;;-8.30;99.90;;;;;;4918770;29;20032;-67
2022/01/09 06:54:02;;;;;;;8.80;4.85;;;-8.30;99.90;;;;;;4918579;29;20028;-66
2022/01/09 06:56:28;;;;;;;10.15;4.70;;;-8.30;99.90;;;;;;4918342;29;20021;-65
2022/01/09 06:58:54;;;;;;;9.48;4.95;;;-8.40;99.90;;;;;;4917001;29;20121;-68
2022/01/09 07:01:20;;;;;;;13.05;5.45;;;-8.30;99.90;;;;;;4918622;29;20100;-69
2022/01/09 07:03:46;;;;;;;6.82;4.55;;;-8.30;99.90;;;;;;4918443;29;20035;-68
2022/01/09 07:06:12;;;;;;;7.97;4.30;;;-8.40;99.90;;;;;;4918234;29;20379;-68
2022/01/09 07:08:38;;;;;;;8.38;5.30;;;-7.80;99.90;;;;;;4918180;29;20036;-68
2022/01/09 07:11:05;;;;;;;11.27;5.45;;;-8.00;99.90;;;;;;4918089;29;20016;-69
2022/01/09 07:13:31;;;;;;;7.47;4.43;;;-8.00;99.90;;;;;;4918185;29;20429;-68
2022/01/09 07:15:57;;;;;;;20.13;9.05;;;-8.10;99.90;;;;;;4917826;29;20024;-68
2022/01/09 07:18:23;;;;;;;13.57;5.85;;;-8.10;99.90;;;;;;4917382;29;20027;-76
2022/01/09 07:20:48;;;;;;;58.03;19.83;;;-8.30;99.90;;;;;;4913852;29;20439;-67
2022/01/09 07:23:14;;;;;;;16.88;6.55;;;-8.40;99.90;;;;;;4917477;29;20107;-70
2022/01/09 07:25:40;;;;;;;10.18;5.43;;;-7.60;99.90;;;;;;4917668;29;20033;-69
2022/01/09 07:28:06;;;;;;;8.82;4.65;;;-5.10;99.90;;;;;;4917721;29;20488;-68
2022/01/09 07:30:32;;;;;;;6.10;4.03;;;-3.90;99.90;;;;;;4918047;29;20059;-67
2022/01/09 07:32:58;;;;;;;6.05;3.78;;;-3.40;99.90;;;;;;4917746;29;20085;-67
2022/01/09 07:35:24;;;;;;;7.25;3.92;;;-3.00;99.90;;;;;;4918043;29;20043;-67
2022/01/09 07:37:50;;;;;;;6.28;4.38;;;-4.00;99.90;;;;;;4917438;29;20047;-68
2022/01/09 07:40:17;;;;;;;6.57;5.53;;;-5.10;99.90;;;;;;4917980;29;20028;-68
2022/01/09 07:42:42;;;;;;;6.20;4.28;;;-5.80;99.90;;;;;;4918006;29;20100;-68
2022/01/09 07:45:09;;;;;;;5.95;4.15;;;-6.40;99.90;;;;;;4917765;29;20405;-67
2022/01/09 07:47:36;;;;;;;9.60;4.05;;;-6.80;99.90;;;;;;4917766;29;20044;-66
2022/01/09 07:50:06;;;;;;;8.63;4.60;;;-7.00;99.90;;;;;;4917404;29;20151;-66
2022/01/09 07:52:34;;;;;;;;;;;-6.80;99.90;;;;;;4917966;29;20047;-67
2022/01/09 07:55:04;;;;;;;6.55;4.30;;;-6.90;99.90;;;;;;4917493;29;19993;-68
2022/01/09 07:57:30;;;;;;;;;;;-6.80;99.90;;;;;;4917632;29;20501;-68
2022/01/09 07:59:57;;;;;;;6.28;3.75;;;-6.80;99.90;;;;;;4917101;29;19950;-68
2022/01/09 08:02:23;;;;;;;7.63;4.35;;;-7.10;99.90;;;;;;4917228;29;20518;-68
2022/01/09 08:04:49;;;;;;;7.68;4.20;;;-7.30;99.90;;;;;;4917092;29;20492;-68
2022/01/09 08:07:15;;;;;;;7.07;3.80;;;-7.40;99.90;;;;;;4917132;29;20046;-66
2022/01/09 08:09:42;;;;;;;10.52;4.53;;;-7.50;99.90;;;;;;4917303;29;20024;-66
2022/01/09 08:12:10;;;;;;;8.45;4.40;;;-7.60;99.90;;;;;;4916961;29;20440;-68
2022/01/09 08:14:37;;;;;;;8.30;4.80;;;-7.30;99.90;;;;;;4916905;29;20025;-68
2022/01/09 08:17:04;;;;;;;10.55;5.53;;;-7.30;99.90;;;;;;4917149;29;20064;-68
2022/01/09 08:19:31;;;;;;;11.43;5.72;;;-7.40;99.90;;;;;;4916922;29;20032;-68
2022/01/09 08:22:00;;;;;;;17.10;7.30;;;-7.60;99.90;;;;;;4916983;29;20032;-68
2022/01/09 08:24:26;;;;;;;13.45;5.85;;;-7.70;99.90;;;;;;4917050;29;20092;-68
2022/01/09 08:26:52;;;;;;;11.27;5.15;;;-7.70;99.90;;;;;;4916448;29;20388;-68
2022/01/09 08:29:17;;;;;;;7.30;4.78;;;-7.80;99.90;;;;;;4916285;29;20535;-67
2022/01/09 08:31:43;;;;;;;8.45;4.80;;;-7.80;99.90;;;;;;4916193;29;20028;-67
2022/01/09 08:34:09;;;;;;;7.88;5.40;;;-7.90;99.90;;;;;;4916706;29;20621;-67
2022/01/09 08:36:35;;;;;;;8.65;4.93;;;-7.90;99.90;;;;;;4916573;29;20028;-67
2022/01/09 08:39:03;;;;;;;6.43;4.55;;;-7.90;99.90;;;;;;4915395;29;20486;-69
2022/01/09 08:41:29;;;;;;;5.82;3.35;;;-7.70;99.90;;;;;;4916631;29;20035;-68
2022/01/09 08:43:54;;;;;;;7.63;4.85;;;-4.80;99.90;;;;;;4915927;29;20477;-67
2022/01/09 08:46:20;;;;;;;6.45;4.65;;;-0.20;99.90;;;;;;4916508;29;20102;-67
2022/01/09 08:48:46;;;;;;;6.72;3.85;;;-0.80;99.90;;;;;;4916593;29;20385;-67
2022/01/09 08:51:12;;;;;;;7.43;4.30;;;-1.30;99.90;;;;;;4916339;29;20498;-67
2022/01/09 08:53:39;;;;;;;8.48;5.15;;;-2.70;99.90;;;;;;4916392;29;20032;-67
2022/01/09 08:56:05;;;;;;;7.40;3.38;;;-4.10;99.90;;;;;;4916379;29;20020;-67
2022/01/09 08:58:32;;;;;;;5.93;4.03;;;-5.10;99.90;;;;;;4916518;29;20032;-67
2022/01/09 09:00:58;;;;;;;5.68;3.90;;;-5.80;99.90;;;;;;4916202;29;20050;-67
2022/01/09 09:03:25;;;;;;;5.78;3.08;;;-6.20;99.90;;;;;;4916364;29;20028;-68
2022/01/09 09:05:51;;;;;;;8.90;4.35;;;-6.30;99.90;;;;;;4916294;29;20038;-67
2022/01/09 09:08:17;;;;;;;6.18;3.90;;;-4.20;99.90;;;;;;4916340;29;20040;-67
2022/01/09 09:10:43;;;;;;;6.70;3.72;;;-4.80;99.90;;;;;;4916228;29;20050;-67
2022/01/09 09:13:09;;;;;;;7.57;4.50;;;-5.60;99.90;;;;;;4916155;29;20035;-67
2022/01/09 09:15:35;;;;;;;5.68;3.47;;;-6.20;99.90;;;;;;4916455;29;20029;-67
2022/01/09 09:18:01;;;;;;;6.47;4.20;;;-6.60;99.90;;;;;;4915897;29;20025;-67
2022/01/09 09:20:28;;;;;;;6.60;4.30;;;-6.90;99.90;;;;;;4916032;29;20036;-67
2022/01/09 09:22:53;;;;;;;4.95;3.47;;;-7.00;99.90;;;;;;4915876;29;20035;-67
2022/01/09 09:25:19;;;;;;;6.18;4.05;;;-7.20;99.90;;;;;;4915917;29;20036;-67
2022/01/09 09:27:46;;;;;;;8.23;4.20;;;-7.30;99.90;;;;;;4915938;29;20209;-67
2022/01/09 09:30:14;;;;;;;5.95;3.92;;;-7.30;99.90;;;;;;4915962;29;20439;-66
2022/01/09 09:32:42;;;;;;;7.65;5.30;;;-7.40;99.90;;;;;;4915902;29;20480;-66
2022/01/09 09:35:08;;;;;;;11.40;6.18;;;-7.50;99.90;;;;;;4915703;29;20032;-65
2022/01/09 09:37:34;;;;;;;7.45;4.80;;;-7.60;99.90;;;;;;4915488;29;20028;-65
2022/01/09 09:40:00;;;;;;;7.40;4.00;;;-7.60;99.90;;;;;;4915647;29;20051;-65
2022/01/09 09:42:26;;;;;;;8.05;4.78;;;-7.60;99.90;;;;;;4915938;29;20064;-65
2022/01/09 09:44:52;;;;;;;5.55;4.00;;;-7.70;99.90;;;;;;4919887;29;20107;-65
2022/01/09 09:47:19;;;;;;;6.75;4.30;;;-7.70;99.90;;;;;;4919756;29;20136;-65
2022/01/09 09:49:47;;;;;;;7.25;4.03;;;-7.70;99.90;;;;;;4919604;29;20020;-64
2022/01/09 09:52:17;;;;;;;5.95;3.60;;;-7.70;99.90;;;;;;4919515;29;20028;-65
2022/01/09 09:54:44;;;;;;;5.03;3.83;;;-7.70;99.90;;;;;;4919490;29;20514;-62
2022/01/09 09:57:09;;;;;;;6.47;3.92;;;-7.80;99.90;;;;;;4919331;29;20040;-62
2022/01/09 09:59:37;;;;;;;6.07;4.30;;;-7.80;99.90;;;;;;4919365;29;20020;-62
2022/01/09 10:02:15;;;;;;;6.25;3.80;;;-7.80;99.90;;;;;;4919265;29;20582;-62
2022/01/09 10:05:03;;;;;;;7.53;3.85;;;-7.80;99.90;;;;;;4919642;29;20032;-62
2022/01/09 10:07:29;;;;;;;7.22;3.85;;;-7.80;99.90;;;;;;4919226;29;20132;-62
2022/01/09 10:09:58;;;;;;;5.78;3.40;;;-7.90;99.90;;;;;;4919247;29;20047;-62
2022/01/09 10:12:29;;;;;;;4.60;3.42;;;-7.90;99.90;;;;;;4918939;29;20482;-66
2022/01/09 10:15:05;;;;;;;5.05;3.70;;;-7.90;99.90;;;;;;4919106;29;20357;-64
2022/01/09 10:17:31;;;;;;;5.78;3.45;;;-7.80;99.90;;;;;;4919405;29;20036;-64
2022/01/09 10:20:18;;;;;;;4.38;3.38;;;-7.90;99.90;;;;;;4918965;29;20416;-64
2022/01/09 10:22:52;;;;;;;5.03;3.10;;;-7.90;99.90;;;;;;4918657;29;20063;-64
2022/01/09 10:25:23;;;;;;;6.90;4.15;;;-5.60;99.90;;;;;;4919401;29;20476;-64
2022/01/09 10:27:56;;;;;;;4.18;3.40;;;-3.50;99.90;;;;;;4918952;29;20495;-64
2022/01/09 10:30:24;;;;;;;5.45;3.70;;;-3.80;99.90;;;;;;4919250;29;20392;-65
2022/01/09 10:32:58;;;;;;;3.70;2.90;;;-4.90;99.90;;;;;;4918975;29;20069;-64
2022/01/09 10:35:28;;;;;;;5.28;3.33;;;-5.70;99.90;;;;;;4919250;29;20051;-64
2022/01/09 10:38:03;;;;;;;6.07;3.10;;;-6.20;99.90;;;;;;4918510;29;20043;-63
2022/01/09 10:40:29;;;;;;;3.75;3.13;;;-6.50;99.90;;;;;;4919118;29;20032;-64
2022/01/09 10:43:04;;;;;;;3.55;3.05;;;-6.80;99.90;;;;;;4918335;29;20568;-63
2022/01/09 10:45:30;;;;;;;4.63;3.22;;;-6.90;99.90;;;;;;4915860;29;20504;-63
2022/01/09 10:48:12;;;;;;;4.90;3.28;;;-7.00;99.90;;;;;;4918044;29;20032;-64
2022/01/09 10:50:42;;;;;;;4.53;3.03;;;-7.10;99.90;;;;;;4917400;29;20052;-64
2022/01/09 10:53:36;;;;;;;5.18;2.85;;;-7.30;99.90;;;;;;4918110;29;20419;-63
2022/01/09 10:56:21;;;;;;;3.85;3.13;;;-7.40;99.90;;;;;;4914071;29;20087;-63
2022/01/09 10:58:56;;;;;;;4.40;2.70;;;-7.40;99.90;;;;;;4918621;29;20035;-62
2022/01/09 11:01:24;;;;;;;6.72;3.17;;;-7.40;99.90;;;;;;4918144;29;20075;-63
2022/01/09 11:03:56;;;;;;;4.72;3.30;;;-7.50;99.90;;;;;;4918176;29;20115;-62
2022/01/09 11:06:23;;;;;;;3.65;2.95;;;-7.50;99.90;;;;;;4917337;29;20035;-63
2022/01/09 11:08:50;;;;;;;5.97;3.65;;;-7.60;99.90;;;;;;4918327;29;20043;-62
2022/01/09 11:13:48;;;;;;;9.02;4.05;;;-7.60;99.90;;;;;;4918530;29;20076;-63
2022/01/09 11:19:06;;;;;;;6.68;3.38;;;-7.70;99.90;;;;;;4915445;29;20038;-63
2022/01/09 11:21:32;;;;;;;8.13;3.50;;;-7.70;99.90;;;;;;4917328;29;20080;-63
2022/01/09 11:24:44;;;;;;;5.68;3.75;;;-7.80;99.90;;;;;;4917674;29;20379;-62
2022/01/09 11:27:26;;;;;;;4.70;3.60;;;-7.70;99.90;;;;;;4916788;29;20123;-62
2022/01/09 11:30:03;;;;;;;6.93;3.60;;;-7.70;99.90;;;;;;4917838;29;20111;-62
2022/01/09 11:33:04;;;;;;;4.68;3.30;;;-7.70;99.90;;;;;;4917881;29;20064;-62
2022/01/09 11:35:54;;;;;;;4.72;3.67;;;-7.70;99.90;;;;;;4915428;29;20067;-63
2022/01/09 11:38:55;;;;;;;5.13;3.88;;;-7.70;99.90;;;;;;4917384;29;20048;-62
2022/01/09 11:41:27;;;;;;;;;;;-7.70;99.90;;;;;;4917840;29;20054;-62
2022/01/09 11:43:57;;;;;;;4.65;3.10;;;-7.60;99.90;;;;;;4917635;29;19998;-65
2022/01/09 11:46:25;;;;;;;6.50;3.50;;;-7.60;99.90;;;;;;4917323;29;20068;-63
2022/01/09 11:48:50;;;;;;;6.72;4.60;;;-7.60;99.90;;;;;;4917515;29;20049;-62
2022/01/09 11:51:20;;;;;;;8.55;4.28;;;-7.60;99.90;;;;;;4917183;29;20020;-62
2022/01/09 11:54:00;;;;;;;5.63;3.95;;;-7.70;99.90;;;;;;4917687;29;20024;-63
2022/01/09 11:56:41;;;;;;;6.43;3.78;;;-7.60;99.90;;;;;;4917382;29;20080;-63
2022/01/09 11:59:29;;;;;;;4.05;2.75;;;-7.70;99.90;;;;;;4917579;29;20029;-63
2022/01/09 12:01:59;;;;;;;6.45;3.10;;;-7.80;99.90;;;;;;4917707;29;20024;-63
2022/01/09 12:04:34;;;;;;;3.50;3.03;;;-7.80;99.90;;;;;;4917112;29;20035;-63
2022/01/09 12:07:03;;;;;;;3.97;2.95;;;-7.80;99.90;;;;;;4916589;29;20068;-63
2022/01/09 12:09:45;;;;;;;3.88;3.17;;;-7.80;99.90;;;;;;4917416;29;20103;-63
2022/01/09 12:12:43;;;;;;;4.30;2.80;;;-7.80;99.90;;;;;;4917307;29;20115;-66
2022/01/09 12:15:09;;;;;;;5.35;3.28;;;-7.80;99.90;;;;;;4915050;29;20059;-67
2022/01/09 12:17:45;;;;;;;7.53;2.95;;;-7.80;99.90;;;;;;4916492;29;20040;-67
2022/01/09 12:20:11;;;;;;;3.47;2.92;;;-7.80;99.90;;;;;;4916201;29;20058;-66
2022/01/09 12:27:54;;;;;;;2.90;2.58;;;-7.70;99.90;;;;;;4916783;29;20074;-68
2022/01/09 12:30:54;;;;;;;3.78;2.50;;;-7.30;99.90;;;;;;4916147;29;20523;-69
2022/01/09 12:33:34;;;;;;;2.20;2.00;;;-7.20;99.90;;;;;;4916125;29;20059;-68
2022/01/09 12:36:07;;;;;;;7.82;2.90;;;-6.70;99.90;;;;;;4916390;29;20024;-67
2022/01/09 12:38:35;;;;;;;3.53;2.33;;;-7.00;99.90;;;;;;4913481;29;20256;-68
2022/01/09 12:41:04;;;;;;;3.28;2.50;;;-7.20;99.90;;;;;;4916304;29;20383;-68
2022/01/09 12:43:31;;;;;;;3.78;2.95;;;-7.30;99.90;;;;;;4916220;29;20107;-67
2022/01/09 12:45:57;;;;;;;3.67;2.30;;;-7.40;99.90;;;;;;4916260;29;20036;-68
2022/01/09 12:48:28;;;;;;;3.35;2.55;;;-7.40;99.90;;;;;;4916013;29;20095;-68
2022/01/09 12:50:55;;;;;;;2.33;2.00;;;-7.40;99.90;;;;;;4916347;29;20055;-68
2022/01/09 12:53:23;;;;;;;3.10;2.03;;;-7.50;99.90;;;;;;4916307;29;20115;-68
2022/01/09 12:56:10;;;;;;;2.65;2.20;;;-7.60;99.90;;;;;;4916248;29;20020;-68
2022/01/09 12:58:42;;;;;;;2.55;2.05;;;-7.60;99.90;;;;;;4916332;29;20483;-68
2022/01/09 13:01:10;;;;;;;2.20;2.00;;;-7.70;99.90;;;;;;4916387;29;20028;-68
2022/01/09 13:03:39;;;;;;;2.55;2.30;;;-7.40;99.90;;;;;;4916229;29;20032;-68
2022/01/09 13:06:08;;;;;;;3.22;2.00;;;-7.30;99.90;;;;;;4916106;29;20024;-68
2022/01/09 13:08:40;;;;;;;2.53;2.20;;;-7.30;99.90;;;;;;4916089;29;20087;-68
2022/01/09 13:11:08;;;;;;;2.50;2.30;;;-7.40;99.90;;;;;;4916071;29;20499;-68
2022/01/09 13:13:36;;;;;;;7.70;2.08;;;-7.50;99.90;;;;;;4915541;29;20068;-68
2022/01/09 13:16:18;;;;;;;4.00;2.40;;;-7.50;99.90;;;;;;4916229;29;20032;-68
2022/01/09 13:18:49;;;;;;;3.83;2.10;;;-7.60;99.90;;;;;;4915527;29;20083;-68
2022/01/09 13:21:15;;;;;;;1.95;1.73;;;-7.60;99.90;;;;;;4916212;29;20048;-68
2022/01/09 13:24:00;;;;;;;3.05;2.17;;;-7.60;99.90;;;;;;4916143;29;20504;-70
2022/01/09 13:26:34;;;;;;;2.17;1.98;;;-7.60;99.90;;;;;;4916073;29;20024;-69
2022/01/09 13:29:01;;;;;;;2.75;2.17;;;-7.50;99.90;;;;;;4916209;29;20095;-68
2022/01/09 13:31:40;;;;;;;2.33;2.13;;;-6.90;99.90;;;;;;4916150;29;20372;-67
2022/01/09 13:34:07;;;;;;;3.20;1.75;;;-6.90;99.90;;;;;;4915613;29;20400;-66
2022/01/09 13:36:43;;;;;;;4.40;2.28;;;-6.90;99.90;;;;;;4916153;29;20592;-68
2022/01/09 13:39:14;;;;;;;2.33;1.92;;;-7.00;99.90;;;;;;4915069;29;20063;-64
2022/01/09 13:41:47;;;;;;;2.10;1.83;;;-7.10;99.90;;;;;;4915577;29;20084;-64
2022/01/09 13:44:13;;;;;;;2.50;1.92;;;-7.20;99.90;;;;;;4915932;29;20106;-64
2022/01/09 13:46:42;;;;;;;3.00;2.70;;;-7.20;99.90;;;;;;4915903;29;20051;-64
2022/01/09 13:49:13;;;;;;;4.35;2.78;;;-7.20;99.90;;;;;;4915848;29;20032;-64
2022/01/09 13:51:48;;;;;;;4.72;3.22;;;-7.20;99.90;;;;;;4915663;29;20025;-64
2022/01/09 13:54:17;;;;;;;4.97;2.63;;;-7.20;99.90;;;;;;4915626;29;20369;-64
2022/01/09 13:56:44;;;;;;;3.10;2.30;;;-7.20;99.90;;;;;;4915629;29;20035;-64
2022/01/09 13:59:11;;;;;;;2.20;2.00;;;-7.20;99.90;;;;;;4915661;29;20032;-64
2022/01/09 14:01:41;;;;;;;2.20;2.00;;;-7.30;99.90;;;;;;4915507;29;20067;-64
2022/01/09 14:04:15;;;;;;;2.25;2.00;;;-7.30;99.90;;;;;;4915714;29;20383;-64
2022/01/09 14:06:41;;;;;;;2.40;2.20;;;-7.30;99.90;;;;;;4915603;29;20037;-64